sensor_id;sensor_type;location;lat;lon;timestamp;P1;durP1;ratioP1;P2;durP2;ratioP2
3439;SDS011;1733;42.286;22.690;2022-12-10T00:00:05;6.90;;;2.80;;
3439;SDS011;1733;42.286;22.690;2022-12-10T00:02:33;3.60;;;3.30;;
3439;SDS011;1733;42.286;22.690;2022-12-10T00:04:59;9.30;;;3.10;;
3439;SDS011;1733;42.286;22.690;2022-12-10T00:07:28;3.33;;;2.20;;
3439;SDS011;1733;42.286;22.690;2022-12-10T00:09:55;4.50;;;2.30;;
3439;SDS011;1733;42.286;22.690;2022-12-10T00:12:21;2.70;;;2.50;;
3439;SDS011;1733;42.286;22.690;2022-12-10T00:14:48;3.30;;;2.93;;
3439;SDS011;1733;42.286;22.690;2022-12-10T00:17:15;2.93;;;2.43;;
3439;SDS011;1733;42.286;22.690;2022-12-10T00:19:41;6.37;;;5.17;;
3439;SDS011;1733;42.286;22.690;2022-12-10T00:22:08;4.83;;;3.23;;
3439;SDS011;1733;42.286;22.690;2022-12-10T00:24:36;5.70;;;2.30;;
3439;SDS011;1733;42.286;22.690;2022-12-10T00:27:03;3.90;;;1.87;;
3439;SDS011;1733;42.286;22.690;2022-12-10T00:29:30;2.93;;;2.70;;
3439;SDS011;1733;42.286;22.690;2022-12-10T00:31:57;4.10;;;2.50;;
3439;SDS011;1733;42.286;22.690;2022-12-10T00:34:24;3.83;;;3.50;;
3439;SDS011;1733;42.286;22.690;2022-12-10T00:36:51;5.63;;;3.90;;
3439;SDS011;1733;42.286;22.690;2022-12-10T00:39:19;13.60;;;3.20;;
3439;SDS011;1733;42.286;22.690;2022-12-10T00:41:48;3.17;;;2.57;;
3439;SDS011;1733;42.286;22.690;2022-12-10T00:44:15;6.63;;;3.10;;
3439;SDS011;1733;42.286;22.690;2022-12-10T00:46:43;12.77;;;3.00;;
3439;SDS011;1733;42.286;22.690;2022-12-10T00:49:10;3.07;;;2.63;;
3439;SDS011;1733;42.286;22.690;2022-12-10T00:51:37;5.90;;;3.87;;
3439;SDS011;1733;42.286;22.690;2022-12-10T00:54:04;3.27;;;3.07;;
3439;SDS011;1733;42.286;22.690;2022-12-10T00:56:32;5.43;;;4.93;;
3439;SDS011;1733;42.286;22.690;2022-12-10T00:59:01;3.20;;;2.67;;
3439;SDS011;1733;42.286;22.690;2022-12-10T01:01:29;4.23;;;2.60;;
3439;SDS011;1733;42.286;22.690;2022-12-10T01:03:58;3.90;;;2.60;;
3439;SDS011;1733;42.286;22.690;2022-12-10T01:06:28;2.47;;;2.27;;
3439;SDS011;1733;42.286;22.690;2022-12-10T01:08:57;6.53;;;3.00;;
3439;SDS011;1733;42.286;22.690;2022-12-10T01:11:26;4.33;;;4.00;;
3439;SDS011;1733;42.286;22.690;2022-12-10T01:13:55;3.63;;;3.33;;
3439;SDS011;1733;42.286;22.690;2022-12-10T01:16:24;4.40;;;2.60;;
3439;SDS011;1733;42.286;22.690;2022-12-10T01:18:52;4.07;;;3.67;;
3439;SDS011;1733;42.286;22.690;2022-12-10T01:21:20;4.40;;;2.50;;
3439;SDS011;1733;42.286;22.690;2022-12-10T01:23:48;4.80;;;3.50;;
3439;SDS011;1733;42.286;22.690;2022-12-10T01:26:17;3.77;;;3.20;;
3439;SDS011;1733;42.286;22.690;2022-12-10T01:28:45;3.10;;;2.70;;
3439;SDS011;1733;42.286;22.690;2022-12-10T01:31:13;5.87;;;2.43;;
3439;SDS011;1733;42.286;22.690;2022-12-10T01:33:43;6.23;;;4.03;;
3439;SDS011;1733;42.286;22.690;2022-12-10T01:36:10;4.40;;;2.60;;
3439;SDS011;1733;42.286;22.690;2022-12-10T01:38:39;10.70;;;3.30;;
3439;SDS011;1733;42.286;22.690;2022-12-10T01:41:06;2.90;;;2.57;;
3439;SDS011;1733;42.286;22.690;2022-12-10T01:43:48;3.90;;;2.40;;
3439;SDS011;1733;42.286;22.690;2022-12-10T01:46:17;2.90;;;2.40;;
3439;SDS011;1733;42.286;22.690;2022-12-10T01:48:46;4.53;;;3.37;;
3439;SDS011;1733;42.286;22.690;2022-12-10T01:51:13;7.20;;;3.20;;
3439;SDS011;1733;42.286;22.690;2022-12-10T01:53:41;5.90;;;3.30;;
3439;SDS011;1733;42.286;22.690;2022-12-10T01:56:09;7.10;;;4.17;;
3439;SDS011;1733;42.286;22.690;2022-12-10T01:58:36;6.80;;;5.63;;
3439;SDS011;1733;42.286;22.690;2022-12-10T02:01:05;3.13;;;2.33;;
3439;SDS011;1733;42.286;22.690;2022-12-10T02:03:37;3.37;;;3.00;;
3439;SDS011;1733;42.286;22.690;2022-12-10T02:06:15;4.00;;;2.87;;
3439;SDS011;1733;42.286;22.690;2022-12-10T02:08:53;3.43;;;2.10;;
3439;SDS011;1733;42.286;22.690;2022-12-10T02:11:29;8.60;;;2.47;;
3439;SDS011;1733;42.286;22.690;2022-12-10T02:14:05;2.60;;;2.40;;
3439;SDS011;1733;42.286;22.690;2022-12-10T02:16:37;4.60;;;3.90;;
3439;SDS011;1733;42.286;22.690;2022-12-10T02:19:12;3.30;;;2.30;;
3439;SDS011;1733;42.286;22.690;2022-12-10T02:21:48;2.67;;;2.47;;
3439;SDS011;1733;42.286;22.690;2022-12-10T02:24:18;2.83;;;2.60;;
3439;SDS011;1733;42.286;22.690;2022-12-10T02:26:51;3.77;;;2.00;;
3439;SDS011;1733;42.286;22.690;2022-12-10T02:29:25;2.60;;;2.40;;
3439;SDS011;1733;42.286;22.690;2022-12-10T02:31:55;3.60;;;2.10;;
3439;SDS011;1733;42.286;22.690;2022-12-10T02:34:26;4.00;;;2.00;;
3439;SDS011;1733;42.286;22.690;2022-12-10T02:36:57;6.00;;;1.73;;
3439;SDS011;1733;42.286;22.690;2022-12-10T02:39:31;2.47;;;2.27;;
3439;SDS011;1733;42.286;22.690;2022-12-10T02:42:03;4.20;;;3.63;;
3439;SDS011;1733;42.286;22.690;2022-12-10T02:44:33;2.63;;;2.40;;
3439;SDS011;1733;42.286;22.690;2022-12-10T02:47:04;2.77;;;2.60;;
3439;SDS011;1733;42.286;22.690;2022-12-10T02:49:32;2.77;;;2.37;;
3439;SDS011;1733;42.286;22.690;2022-12-10T02:52:05;3.13;;;2.30;;
3439;SDS011;1733;42.286;22.690;2022-12-10T02:54:35;3.27;;;2.30;;
3439;SDS011;1733;42.286;22.690;2022-12-10T02:57:07;2.67;;;2.33;;
3439;SDS011;1733;42.286;22.690;2022-12-10T02:59:45;5.73;;;2.87;;
3439;SDS011;1733;42.286;22.690;2022-12-10T03:02:22;4.13;;;2.80;;
3439;SDS011;1733;42.286;22.690;2022-12-10T03:04:58;3.87;;;2.83;;
3439;SDS011;1733;42.286;22.690;2022-12-10T03:07:30;1.90;;;1.80;;
3439;SDS011;1733;42.286;22.690;2022-12-10T03:10:02;3.50;;;3.20;;
3439;SDS011;1733;42.286;22.690;2022-12-10T03:12:37;2.23;;;2.03;;
3439;SDS011;1733;42.286;22.690;2022-12-10T03:15:09;5.90;;;4.40;;
3439;SDS011;1733;42.286;22.690;2022-12-10T03:17:38;4.00;;;2.80;;
3439;SDS011;1733;42.286;22.690;2022-12-10T03:20:08;2.53;;;2.20;;
3439;SDS011;1733;42.286;22.690;2022-12-10T03:22:39;2.17;;;1.83;;
3439;SDS011;1733;42.286;22.690;2022-12-10T03:25:10;11.00;;;3.80;;
3439;SDS011;1733;42.286;22.690;2022-12-10T03:27:41;8.80;;;1.80;;
3439;SDS011;1733;42.286;22.690;2022-12-10T03:30:11;4.43;;;2.20;;
3439;SDS011;1733;42.286;22.690;2022-12-10T03:32:38;4.33;;;3.77;;
3439;SDS011;1733;42.286;22.690;2022-12-10T03:35:05;2.57;;;2.37;;
3439;SDS011;1733;42.286;22.690;2022-12-10T03:37:33;2.20;;;2.00;;
3439;SDS011;1733;42.286;22.690;2022-12-10T03:40:00;2.37;;;1.83;;
3439;SDS011;1733;42.286;22.690;2022-12-10T03:42:29;3.37;;;3.10;;
3439;SDS011;1733;42.286;22.690;2022-12-10T03:44:56;3.03;;;2.73;;
3439;SDS011;1733;42.286;22.690;2022-12-10T03:47:25;2.23;;;2.10;;
3439;SDS011;1733;42.286;22.690;2022-12-10T03:49:51;2.87;;;2.07;;
3439;SDS011;1733;42.286;22.690;2022-12-10T03:52:18;1.80;;;1.70;;
3439;SDS011;1733;42.286;22.690;2022-12-10T03:54:45;1.90;;;1.80;;
3439;SDS011;1733;42.286;22.690;2022-12-10T03:57:12;4.53;;;1.73;;
3439;SDS011;1733;42.286;22.690;2022-12-10T03:59:39;2.33;;;1.80;;
3439;SDS011;1733;42.286;22.690;2022-12-10T04:02:06;3.50;;;1.70;;
3439;SDS011;1733;42.286;22.690;2022-12-10T04:04:34;4.13;;;1.80;;
3439;SDS011;1733;42.286;22.690;2022-12-10T04:07:01;2.97;;;2.67;;
3439;SDS011;1733;42.286;22.690;2022-12-10T04:09:28;3.20;;;1.93;;
3439;SDS011;1733;42.286;22.690;2022-12-10T04:11:55;2.13;;;1.90;;
3439;SDS011;1733;42.286;22.690;2022-12-10T04:14:23;2.10;;;1.90;;
3439;SDS011;1733;42.286;22.690;2022-12-10T04:17:08;2.23;;;1.77;;
3439;SDS011;1733;42.286;22.690;2022-12-10T04:19:36;20.87;;;10.13;;
3439;SDS011;1733;42.286;22.690;2022-12-10T04:22:03;11.77;;;7.00;;
3439;SDS011;1733;42.286;22.690;2022-12-10T04:24:47;99.20;;;50.93;;
3439;SDS011;1733;42.286;22.690;2022-12-10T04:27:32;28.07;;;9.40;;
3439;SDS011;1733;42.286;22.690;2022-12-10T04:30:02;16.63;;;6.53;;
3439;SDS011;1733;42.286;22.690;2022-12-10T04:32:30;12.80;;;8.67;;
3439;SDS011;1733;42.286;22.690;2022-12-10T04:34:59;6.30;;;4.60;;
3439;SDS011;1733;42.286;22.690;2022-12-10T04:37:26;6.73;;;4.80;;
3439;SDS011;1733;42.286;22.690;2022-12-10T04:39:53;6.43;;;4.33;;
3439;SDS011;1733;42.286;22.690;2022-12-10T04:42:20;6.47;;;3.60;;
3439;SDS011;1733;42.286;22.690;2022-12-10T04:44:48;3.93;;;3.60;;
3439;SDS011;1733;42.286;22.690;2022-12-10T04:47:15;9.03;;;4.93;;
3439;SDS011;1733;42.286;22.690;2022-12-10T04:49:43;10.03;;;8.57;;
3439;SDS011;1733;42.286;22.690;2022-12-10T04:52:11;8.23;;;4.80;;
3439;SDS011;1733;42.286;22.690;2022-12-10T04:54:39;10.23;;;4.93;;
3439;SDS011;1733;42.286;22.690;2022-12-10T04:57:07;8.83;;;7.93;;
3439;SDS011;1733;42.286;22.690;2022-12-10T04:59:34;7.80;;;6.40;;
3439;SDS011;1733;42.286;22.690;2022-12-10T05:02:02;5.60;;;4.60;;
3439;SDS011;1733;42.286;22.690;2022-12-10T05:04:29;5.77;;;4.27;;
3439;SDS011;1733;42.286;22.690;2022-12-10T05:06:55;4.50;;;2.93;;
3439;SDS011;1733;42.286;22.690;2022-12-10T05:09:23;7.57;;;4.63;;
3439;SDS011;1733;42.286;22.690;2022-12-10T05:11:51;8.50;;;5.87;;
3439;SDS011;1733;42.286;22.690;2022-12-10T05:14:17;5.13;;;4.73;;
3439;SDS011;1733;42.286;22.690;2022-12-10T05:16:44;7.17;;;3.70;;
3439;SDS011;1733;42.286;22.690;2022-12-10T05:19:12;15.50;;;6.73;;
3439;SDS011;1733;42.286;22.690;2022-12-10T05:21:38;10.83;;;7.13;;
3439;SDS011;1733;42.286;22.690;2022-12-10T05:24:24;10.53;;;6.60;;
3439;SDS011;1733;42.286;22.690;2022-12-10T05:26:51;7.53;;;6.07;;
3439;SDS011;1733;42.286;22.690;2022-12-10T05:29:18;13.10;;;8.37;;
3439;SDS011;1733;42.286;22.690;2022-12-10T05:31:45;8.50;;;6.40;;
3439;SDS011;1733;42.286;22.690;2022-12-10T05:34:12;6.60;;;3.87;;
3439;SDS011;1733;42.286;22.690;2022-12-10T05:36:39;8.63;;;5.43;;
3439;SDS011;1733;42.286;22.690;2022-12-10T05:39:07;6.47;;;5.87;;
3439;SDS011;1733;42.286;22.690;2022-12-10T05:41:36;6.23;;;5.73;;
3439;SDS011;1733;42.286;22.690;2022-12-10T05:44:04;7.37;;;6.10;;
3439;SDS011;1733;42.286;22.690;2022-12-10T05:46:33;18.10;;;8.87;;
3439;SDS011;1733;42.286;22.690;2022-12-10T05:49:02;11.07;;;8.57;;
3439;SDS011;1733;42.286;22.690;2022-12-10T05:51:31;13.33;;;10.40;;
3439;SDS011;1733;42.286;22.690;2022-12-10T05:53:59;20.50;;;10.30;;
3439;SDS011;1733;42.286;22.690;2022-12-10T05:56:26;9.30;;;6.93;;
3439;SDS011;1733;42.286;22.690;2022-12-10T05:58:56;11.00;;;7.23;;
3439;SDS011;1733;42.286;22.690;2022-12-10T06:01:26;9.90;;;8.97;;
3439;SDS011;1733;42.286;22.690;2022-12-10T06:03:54;10.37;;;5.97;;
3439;SDS011;1733;42.286;22.690;2022-12-10T06:06:24;14.20;;;9.90;;
3439;SDS011;1733;42.286;22.690;2022-12-10T06:08:52;11.23;;;8.40;;
3439;SDS011;1733;42.286;22.690;2022-12-10T06:11:19;10.30;;;6.80;;
3439;SDS011;1733;42.286;22.690;2022-12-10T06:13:46;7.10;;;5.60;;
3439;SDS011;1733;42.286;22.690;2022-12-10T06:16:14;12.30;;;6.83;;
3439;SDS011;1733;42.286;22.690;2022-12-10T06:18:41;11.10;;;7.43;;
3439;SDS011;1733;42.286;22.690;2022-12-10T06:21:09;9.83;;;8.93;;
3439;SDS011;1733;42.286;22.690;2022-12-10T06:23:38;11.43;;;8.90;;
3439;SDS011;1733;42.286;22.690;2022-12-10T06:26:06;17.20;;;10.10;;
3439;SDS011;1733;42.286;22.690;2022-12-10T06:28:34;14.33;;;10.83;;
3439;SDS011;1733;42.286;22.690;2022-12-10T06:31:02;18.23;;;12.37;;
3439;SDS011;1733;42.286;22.690;2022-12-10T06:33:30;14.17;;;10.90;;
3439;SDS011;1733;42.286;22.690;2022-12-10T06:35:57;9.33;;;7.07;;
3439;SDS011;1733;42.286;22.690;2022-12-10T06:38:24;9.03;;;7.63;;
3439;SDS011;1733;42.286;22.690;2022-12-10T06:40:51;11.63;;;10.30;;
3439;SDS011;1733;42.286;22.690;2022-12-10T06:43:18;13.30;;;8.90;;
3439;SDS011;1733;42.286;22.690;2022-12-10T06:45:45;17.40;;;11.37;;
3439;SDS011;1733;42.286;22.690;2022-12-10T06:48:12;20.70;;;12.30;;
3439;SDS011;1733;42.286;22.690;2022-12-10T06:50:40;18.73;;;12.67;;
3439;SDS011;1733;42.286;22.690;2022-12-10T06:53:07;19.80;;;12.80;;
3439;SDS011;1733;42.286;22.690;2022-12-10T06:55:35;23.23;;;14.40;;
3439;SDS011;1733;42.286;22.690;2022-12-10T06:58:02;23.63;;;17.50;;
3439;SDS011;1733;42.286;22.690;2022-12-10T07:00:29;21.33;;;15.57;;
3439;SDS011;1733;42.286;22.690;2022-12-10T07:02:56;19.10;;;13.70;;
3439;SDS011;1733;42.286;22.690;2022-12-10T07:05:23;22.97;;;15.60;;
3439;SDS011;1733;42.286;22.690;2022-12-10T07:07:51;16.87;;;10.43;;
3439;SDS011;1733;42.286;22.690;2022-12-10T07:10:18;20.70;;;14.27;;
3439;SDS011;1733;42.286;22.690;2022-12-10T07:12:46;23.20;;;14.70;;
3439;SDS011;1733;42.286;22.690;2022-12-10T07:15:12;17.30;;;13.57;;
3439;SDS011;1733;42.286;22.690;2022-12-10T07:17:39;25.23;;;13.60;;
3439;SDS011;1733;42.286;22.690;2022-12-10T07:20:06;21.33;;;14.13;;
3439;SDS011;1733;42.286;22.690;2022-12-10T07:22:34;28.43;;;15.57;;
3439;SDS011;1733;42.286;22.690;2022-12-10T07:25:02;28.57;;;15.23;;
3439;SDS011;1733;42.286;22.690;2022-12-10T07:27:29;24.53;;;14.40;;
3439;SDS011;1733;42.286;22.690;2022-12-10T07:29:57;19.93;;;16.10;;
3439;SDS011;1733;42.286;22.690;2022-12-10T07:32:24;19.90;;;15.97;;
3439;SDS011;1733;42.286;22.690;2022-12-10T07:34:52;25.97;;;14.13;;
3439;SDS011;1733;42.286;22.690;2022-12-10T07:37:19;21.50;;;14.63;;
3439;SDS011;1733;42.286;22.690;2022-12-10T07:39:46;24.73;;;19.37;;
3439;SDS011;1733;42.286;22.690;2022-12-10T07:42:15;27.03;;;14.50;;
3439;SDS011;1733;42.286;22.690;2022-12-10T07:44:41;24.33;;;15.00;;
3439;SDS011;1733;42.286;22.690;2022-12-10T07:47:08;26.53;;;19.20;;
3439;SDS011;1733;42.286;22.690;2022-12-10T07:49:35;26.93;;;14.90;;
3439;SDS011;1733;42.286;22.690;2022-12-10T07:52:02;24.13;;;16.43;;
3439;SDS011;1733;42.286;22.690;2022-12-10T07:54:29;20.07;;;15.93;;
3439;SDS011;1733;42.286;22.690;2022-12-10T07:56:56;34.63;;;22.73;;
3439;SDS011;1733;42.286;22.690;2022-12-10T07:59:24;30.40;;;19.73;;
3439;SDS011;1733;42.286;22.690;2022-12-10T08:01:51;21.30;;;15.97;;
3439;SDS011;1733;42.286;22.690;2022-12-10T08:04:18;24.57;;;17.47;;
3439;SDS011;1733;42.286;22.690;2022-12-10T08:06:44;26.00;;;18.90;;
3439;SDS011;1733;42.286;22.690;2022-12-10T12:22:34;2.20;;;1.47;;
3439;SDS011;1733;42.286;22.690;2022-12-10T12:25:05;2.13;;;1.80;;
3439;SDS011;1733;42.286;22.690;2022-12-10T12:27:41;5.77;;;2.50;;
3439;SDS011;1733;42.286;22.690;2022-12-10T12:30:14;2.67;;;2.57;;
3439;SDS011;1733;42.286;22.690;2022-12-10T12:32:46;4.57;;;2.93;;
3439;SDS011;1733;42.286;22.690;2022-12-10T12:35:21;1.60;;;1.50;;
3439;SDS011;1733;42.286;22.690;2022-12-10T12:37:55;2.30;;;2.10;;
3439;SDS011;1733;42.286;22.690;2022-12-10T12:40:28;2.87;;;2.67;;
3439;SDS011;1733;42.286;22.690;2022-12-10T12:42:57;5.03;;;3.17;;
3439;SDS011;1733;42.286;22.690;2022-12-10T12:45:30;3.33;;;2.90;;
3439;SDS011;1733;42.286;22.690;2022-12-10T12:48:02;3.80;;;2.20;;
3439;SDS011;1733;42.286;22.690;2022-12-10T12:50:42;2.80;;;2.40;;
3439;SDS011;1733;42.286;22.690;2022-12-10T12:53:13;4.80;;;3.10;;
3439;SDS011;1733;42.286;22.690;2022-12-10T12:55:46;5.00;;;1.90;;
3439;SDS011;1733;42.286;22.690;2022-12-10T12:58:23;3.53;;;2.10;;
3439;SDS011;1733;42.286;22.690;2022-12-10T13:00:59;4.50;;;2.60;;
3439;SDS011;1733;42.286;22.690;2022-12-10T13:03:35;5.17;;;2.30;;
3439;SDS011;1733;42.286;22.690;2022-12-10T13:06:13;2.27;;;2.10;;
3439;SDS011;1733;42.286;22.690;2022-12-10T13:08:49;2.70;;;2.10;;
3439;SDS011;1733;42.286;22.690;2022-12-10T13:11:29;4.73;;;3.37;;
3439;SDS011;1733;42.286;22.690;2022-12-10T13:22:55;7.17;;;2.67;;
3439;SDS011;1733;42.286;22.690;2022-12-10T13:25:38;8.10;;;2.90;;
3439;SDS011;1733;42.286;22.690;2022-12-10T13:28:20;4.93;;;4.20;;
3439;SDS011;1733;42.286;22.690;2022-12-10T13:34:05;3.73;;;2.47;;
3439;SDS011;1733;42.286;22.690;2022-12-10T13:37:03;3.13;;;2.53;;
3439;SDS011;1733;42.286;22.690;2022-12-10T13:39:52;1.87;;;1.70;;
3439;SDS011;1733;42.286;22.690;2022-12-10T13:42:28;2.10;;;1.90;;
3439;SDS011;1733;42.286;22.690;2022-12-10T13:45:27;6.87;;;2.30;;
3439;SDS011;1733;42.286;22.690;2022-12-10T13:53:49;2.13;;;2.03;;
3439;SDS011;1733;42.286;22.690;2022-12-10T13:56:26;2.93;;;2.70;;
3439;SDS011;1733;42.286;22.690;2022-12-10T13:58:59;6.33;;;4.20;;
3439;SDS011;1733;42.286;22.690;2022-12-10T14:01:41;7.87;;;4.33;;
3439;SDS011;1733;42.286;22.690;2022-12-10T14:04:21;4.30;;;3.90;;
3439;SDS011;1733;42.286;22.690;2022-12-10T14:07:05;7.63;;;2.47;;
3439;SDS011;1733;42.286;22.690;2022-12-10T14:09:34;4.33;;;2.93;;
3439;SDS011;1733;42.286;22.690;2022-12-10T14:12:07;2.87;;;2.23;;
3439;SDS011;1733;42.286;22.690;2022-12-10T14:14:42;2.37;;;2.17;;
3439;SDS011;1733;42.286;22.690;2022-12-10T14:17:12;2.97;;;2.77;;
3439;SDS011;1733;42.286;22.690;2022-12-10T14:19:41;4.17;;;3.67;;
3439;SDS011;1733;42.286;22.690;2022-12-10T14:22:12;4.73;;;3.30;;
3439;SDS011;1733;42.286;22.690;2022-12-10T14:24:43;5.83;;;4.13;;
3439;SDS011;1733;42.286;22.690;2022-12-10T14:27:16;3.70;;;3.40;;
3439;SDS011;1733;42.286;22.690;2022-12-10T14:29:46;5.97;;;4.07;;
3439;SDS011;1733;42.286;22.690;2022-12-10T14:32:15;4.67;;;4.20;;
3439;SDS011;1733;42.286;22.690;2022-12-10T14:34:46;7.53;;;3.20;;
3439;SDS011;1733;42.286;22.690;2022-12-10T14:37:19;7.93;;;4.90;;
3439;SDS011;1733;42.286;22.690;2022-12-10T14:39:49;4.40;;;4.10;;
3439;SDS011;1733;42.286;22.690;2022-12-10T14:42:16;3.87;;;3.57;;
3439;SDS011;1733;42.286;22.690;2022-12-10T14:44:43;9.23;;;3.00;;
3439;SDS011;1733;42.286;22.690;2022-12-10T14:47:14;4.53;;;4.13;;
3439;SDS011;1733;42.286;22.690;2022-12-10T14:49:43;6.70;;;3.50;;
3439;SDS011;1733;42.286;22.690;2022-12-10T14:52:12;2.40;;;2.20;;
3439;SDS011;1733;42.286;22.690;2022-12-10T14:54:40;5.10;;;4.67;;
3439;SDS011;1733;42.286;22.690;2022-12-10T14:57:08;8.40;;;4.23;;
3439;SDS011;1733;42.286;22.690;2022-12-10T14:59:40;3.47;;;2.97;;
3439;SDS011;1733;42.286;22.690;2022-12-10T15:02:16;3.60;;;3.40;;
3439;SDS011;1733;42.286;22.690;2022-12-10T15:04:48;4.80;;;3.37;;
3439;SDS011;1733;42.286;22.690;2022-12-10T15:07:17;3.80;;;3.00;;
3439;SDS011;1733;42.286;22.690;2022-12-10T15:09:46;4.20;;;2.93;;
3439;SDS011;1733;42.286;22.690;2022-12-10T15:12:19;5.50;;;3.97;;
3439;SDS011;1733;42.286;22.690;2022-12-10T15:14:53;2.70;;;2.50;;
3439;SDS011;1733;42.286;22.690;2022-12-10T15:17:34;2.60;;;2.40;;
3439;SDS011;1733;42.286;22.690;2022-12-10T15:20:09;3.97;;;2.77;;
3439;SDS011;1733;42.286;22.690;2022-12-10T15:22:44;2.90;;;2.37;;
3439;SDS011;1733;42.286;22.690;2022-12-10T15:25:21;4.17;;;3.37;;
3439;SDS011;1733;42.286;22.690;2022-12-10T15:27:54;3.10;;;2.80;;
3439;SDS011;1733;42.286;22.690;2022-12-10T15:30:23;2.70;;;2.50;;
3439;SDS011;1733;42.286;22.690;2022-12-10T15:32:52;2.57;;;2.10;;
3439;SDS011;1733;42.286;22.690;2022-12-10T15:35:20;5.93;;;3.57;;
3439;SDS011;1733;42.286;22.690;2022-12-10T15:37:47;6.07;;;3.37;;
3439;SDS011;1733;42.286;22.690;2022-12-10T15:40:22;2.73;;;2.53;;
3439;SDS011;1733;42.286;22.690;2022-12-10T15:42:50;15.13;;;4.00;;
3439;SDS011;1733;42.286;22.690;2022-12-10T15:45:21;4.40;;;3.50;;
3439;SDS011;1733;42.286;22.690;2022-12-10T15:47:51;6.33;;;2.50;;
3439;SDS011;1733;42.286;22.690;2022-12-10T15:50:20;3.43;;;2.87;;
3439;SDS011;1733;42.286;22.690;2022-12-10T15:52:47;5.20;;;4.50;;
3439;SDS011;1733;42.286;22.690;2022-12-10T15:55:14;3.63;;;3.33;;
3439;SDS011;1733;42.286;22.690;2022-12-10T15:57:41;5.20;;;3.00;;
3439;SDS011;1733;42.286;22.690;2022-12-10T16:02:44;3.50;;;3.20;;
3439;SDS011;1733;42.286;22.690;2022-12-10T16:05:15;5.00;;;3.50;;
3439;SDS011;1733;42.286;22.690;2022-12-10T16:07:44;3.47;;;3.17;;
3439;SDS011;1733;42.286;22.690;2022-12-10T16:10:13;5.50;;;5.00;;
3439;SDS011;1733;42.286;22.690;2022-12-10T16:12:42;8.87;;;6.40;;
3439;SDS011;1733;42.286;22.690;2022-12-10T16:15:11;8.97;;;5.50;;
3439;SDS011;1733;42.286;22.690;2022-12-10T16:17:43;11.40;;;7.60;;
3439;SDS011;1733;42.286;22.690;2022-12-10T16:20:17;7.67;;;6.80;;
3439;SDS011;1733;42.286;22.690;2022-12-10T16:22:46;12.70;;;8.70;;
3439;SDS011;1733;42.286;22.690;2022-12-10T16:25:13;10.53;;;8.40;;
3439;SDS011;1733;42.286;22.690;2022-12-10T16:27:40;12.70;;;8.50;;
3439;SDS011;1733;42.286;22.690;2022-12-10T16:30:12;14.27;;;8.93;;
3439;SDS011;1733;42.286;22.690;2022-12-10T16:32:41;7.63;;;4.80;;
3439;SDS011;1733;42.286;22.690;2022-12-10T16:35:08;4.47;;;3.53;;
3439;SDS011;1733;42.286;22.690;2022-12-10T16:37:36;4.67;;;3.30;;
3439;SDS011;1733;42.286;22.690;2022-12-10T16:40:04;4.00;;;3.40;;
3439;SDS011;1733;42.286;22.690;2022-12-10T16:42:31;4.23;;;3.60;;
3439;SDS011;1733;42.286;22.690;2022-12-10T16:44:58;5.03;;;4.63;;
3439;SDS011;1733;42.286;22.690;2022-12-10T16:47:25;3.70;;;2.80;;
3439;SDS011;1733;42.286;22.690;2022-12-10T16:49:52;6.70;;;3.67;;
3439;SDS011;1733;42.286;22.690;2022-12-10T16:52:19;6.67;;;3.60;;
3439;SDS011;1733;42.286;22.690;2022-12-10T16:54:47;3.30;;;3.07;;
3439;SDS011;1733;42.286;22.690;2022-12-10T16:57:14;2.70;;;2.50;;
3439;SDS011;1733;42.286;22.690;2022-12-10T16:59:41;5.13;;;3.93;;
3439;SDS011;1733;42.286;22.690;2022-12-10T17:02:11;6.30;;;4.33;;
3439;SDS011;1733;42.286;22.690;2022-12-10T17:04:40;2.57;;;2.40;;
3439;SDS011;1733;42.286;22.690;2022-12-10T17:07:10;4.93;;;3.27;;
3439;SDS011;1733;42.286;22.690;2022-12-10T17:09:47;5.77;;;4.30;;
3439;SDS011;1733;42.286;22.690;2022-12-10T17:12:14;4.00;;;2.73;;
3439;SDS011;1733;42.286;22.690;2022-12-10T17:14:41;3.63;;;3.43;;
3439;SDS011;1733;42.286;22.690;2022-12-10T17:17:12;5.67;;;3.50;;
3439;SDS011;1733;42.286;22.690;2022-12-10T17:19:40;4.13;;;2.30;;
3439;SDS011;1733;42.286;22.690;2022-12-10T17:22:08;2.80;;;2.53;;
3439;SDS011;1733;42.286;22.690;2022-12-10T17:24:36;2.87;;;2.70;;
3439;SDS011;1733;42.286;22.690;2022-12-10T17:27:05;2.93;;;2.73;;
3439;SDS011;1733;42.286;22.690;2022-12-10T17:29:33;2.70;;;2.57;;
3439;SDS011;1733;42.286;22.690;2022-12-10T17:32:03;4.93;;;2.27;;
3439;SDS011;1733;42.286;22.690;2022-12-10T17:34:30;3.33;;;3.13;;
3439;SDS011;1733;42.286;22.690;2022-12-10T17:36:57;3.90;;;2.40;;
3439;SDS011;1733;42.286;22.690;2022-12-10T17:39:24;3.57;;;1.83;;
3439;SDS011;1733;42.286;22.690;2022-12-10T17:41:53;3.13;;;2.87;;
3439;SDS011;1733;42.286;22.690;2022-12-10T17:44:21;3.33;;;2.70;;
3439;SDS011;1733;42.286;22.690;2022-12-10T17:46:48;1.77;;;1.67;;
3439;SDS011;1733;42.286;22.690;2022-12-10T17:49:15;2.60;;;1.97;;
3439;SDS011;1733;42.286;22.690;2022-12-10T17:51:42;3.13;;;2.63;;
3439;SDS011;1733;42.286;22.690;2022-12-10T17:54:10;3.50;;;3.13;;
3439;SDS011;1733;42.286;22.690;2022-12-10T17:56:37;2.90;;;2.70;;
3439;SDS011;1733;42.286;22.690;2022-12-10T17:59:04;5.03;;;4.30;;
3439;SDS011;1733;42.286;22.690;2022-12-10T18:01:33;2.50;;;2.30;;
3439;SDS011;1733;42.286;22.690;2022-12-10T18:04:00;3.10;;;2.70;;
3439;SDS011;1733;42.286;22.690;2022-12-10T18:06:27;2.67;;;2.03;;
3439;SDS011;1733;42.286;22.690;2022-12-10T18:08:56;8.90;;;3.17;;
3439;SDS011;1733;42.286;22.690;2022-12-10T18:11:26;2.93;;;2.57;;
3439;SDS011;1733;42.286;22.690;2022-12-10T18:13:54;2.07;;;1.90;;
3439;SDS011;1733;42.286;22.690;2022-12-10T18:16:22;2.77;;;2.13;;
3439;SDS011;1733;42.286;22.690;2022-12-10T18:18:53;1.87;;;1.77;;
3439;SDS011;1733;42.286;22.690;2022-12-10T18:21:21;3.10;;;2.20;;
3439;SDS011;1733;42.286;22.690;2022-12-10T18:23:48;2.47;;;2.27;;
3439;SDS011;1733;42.286;22.690;2022-12-10T18:26:16;2.63;;;2.40;;
3439;SDS011;1733;42.286;22.690;2022-12-10T18:28:49;2.97;;;1.80;;
3439;SDS011;1733;42.286;22.690;2022-12-10T18:31:18;2.77;;;2.57;;
3439;SDS011;1733;42.286;22.690;2022-12-10T18:33:49;2.20;;;1.50;;
3439;SDS011;1733;42.286;22.690;2022-12-10T18:36:19;1.87;;;1.77;;
3439;SDS011;1733;42.286;22.690;2022-12-10T18:38:48;2.63;;;2.43;;
3439;SDS011;1733;42.286;22.690;2022-12-10T18:41:16;3.47;;;1.83;;
3439;SDS011;1733;42.286;22.690;2022-12-10T18:43:43;2.40;;;2.20;;
3439;SDS011;1733;42.286;22.690;2022-12-10T18:46:14;2.57;;;2.37;;
3439;SDS011;1733;42.286;22.690;2022-12-10T18:48:43;2.90;;;2.50;;
3439;SDS011;1733;42.286;22.690;2022-12-10T18:51:11;1.90;;;1.70;;
3439;SDS011;1733;42.286;22.690;2022-12-10T18:53:41;2.03;;;1.47;;
3439;SDS011;1733;42.286;22.690;2022-12-10T18:56:10;6.10;;;2.13;;
3439;SDS011;1733;42.286;22.690;2022-12-10T18:58:38;2.23;;;1.70;;
3439;SDS011;1733;42.286;22.690;2022-12-10T19:01:05;2.57;;;2.37;;
3439;SDS011;1733;42.286;22.690;2022-12-10T19:03:33;3.73;;;2.30;;
3439;SDS011;1733;42.286;22.690;2022-12-10T19:06:00;3.77;;;3.03;;
3439;SDS011;1733;42.286;22.690;2022-12-10T19:08:27;5.07;;;4.00;;
3439;SDS011;1733;42.286;22.690;2022-12-10T19:10:56;5.40;;;4.50;;
3439;SDS011;1733;42.286;22.690;2022-12-10T19:13:23;5.87;;;4.20;;
3439;SDS011;1733;42.286;22.690;2022-12-10T19:15:50;5.20;;;2.30;;
3439;SDS011;1733;42.286;22.690;2022-12-10T19:18:17;5.70;;;3.57;;
3439;SDS011;1733;42.286;22.690;2022-12-10T19:20:44;3.87;;;3.50;;
3439;SDS011;1733;42.286;22.690;2022-12-10T19:23:11;7.30;;;4.50;;
3439;SDS011;1733;42.286;22.690;2022-12-10T19:25:38;4.17;;;3.77;;
3439;SDS011;1733;42.286;22.690;2022-12-10T19:28:06;8.53;;;4.53;;
3439;SDS011;1733;42.286;22.690;2022-12-10T19:30:34;5.23;;;3.77;;
3439;SDS011;1733;42.286;22.690;2022-12-10T19:33:02;3.60;;;3.30;;
3439;SDS011;1733;42.286;22.690;2022-12-10T19:35:29;7.00;;;3.70;;
3439;SDS011;1733;42.286;22.690;2022-12-10T19:37:55;3.63;;;2.30;;
3439;SDS011;1733;42.286;22.690;2022-12-10T19:40:23;3.70;;;2.90;;
3439;SDS011;1733;42.286;22.690;2022-12-10T19:42:52;1.80;;;1.67;;
3439;SDS011;1733;42.286;22.690;2022-12-10T19:45:20;2.53;;;1.90;;